Time;durP1;ratioP1;P1;durP2;ratioP2;P2;SDS_P1;SDS_P2;PMS_P1;PMS_P2;Temp;Humidity;BMP_temperature;BMP_pressure;BME280_temperature;BME280_humidity;BME280_pressure;Samples;Min_cycle;Max_cycle;Signal;HPM_P1;HPM_P2
2022/10/17 00:00:04;;;;;;;36.80;19.00;;;;;;;15.42;100.00;95538.19;5119567;28;20027;-89
2022/10/17 00:02:30;;;;;;;35.83;19.15;;;;;;;15.52;100.00;95538.19;5119237;28;20496;-89
2022/10/17 00:04:56;;;;;;;36.13;17.83;;;;;;;15.54;100.00;95537.91;5119263;28;20172;-89
2022/10/17 00:07:21;;;;;;;30.45;17.88;;;;;;;15.66;100.00;95535.75;5119678;28;20028;-88
2022/10/17 00:09:46;;;;;;;35.63;19.60;;;;;;;15.45;100.00;95535.06;5136463;27;20023;-89
2022/10/17 00:12:12;;;;;;;36.67;18.90;;;;;;;15.44;100.00;95537.94;5102134;28;20035;-89
2022/10/17 00:14:37;;;;;;;34.20;17.85;;;;;;;15.49;100.00;95544.00;5119010;28;20031;-88
2022/10/17 00:17:03;;;;;;;30.83;17.70;;;;;;;15.38;100.00;95545.09;5119319;28;20070;-88
2022/10/17 00:19:29;;;;;;;36.63;19.35;;;;;;;15.44;100.00;95546.69;5118906;28;20039;-88
2022/10/17 00:21:54;;;;;;;32.78;18.27;;;;;;;15.36;100.00;95540.09;5102011;28;20332;-89
2022/10/17 00:24:19;;;;;;;31.25;18.20;;;;;;;15.26;100.00;95551.44;5102078;28;20020;-89
2022/10/17 00:26:45;;;;;;;39.38;19.58;;;;;;;15.18;100.00;95544.09;5119143;28;20042;-89
2022/10/17 00:29:10;;;;;;;38.00;19.23;;;;;;;15.36;100.00;95541.94;5120232;27;20084;-89
2022/10/17 00:31:36;;;;;;;32.25;17.02;;;;;;;15.48;100.00;95549.53;5120028;28;20043;-89
2022/10/17 00:34:01;;;;;;;30.38;17.83;;;;;;;15.49;100.00;95554.56;5100905;28;20038;-89
2022/10/17 00:36:27;;;;;;;33.63;18.85;;;;;;;15.22;100.00;95560.19;5118636;28;20330;-89
2022/10/17 00:38:57;;;;;;;30.92;18.38;;;;;;;15.36;100.00;95561.22;5118901;28;20035;-89
2022/10/17 00:41:26;;;;;;;38.78;20.33;;;;;;;15.34;100.00;95557.25;5118457;28;20027;-89
2022/10/17 00:44:05;;;;;;;31.95;18.65;;;;;;;15.34;100.00;95558.03;5118239;28;20080;-89
2022/10/17 00:46:37;;;;;;;31.88;17.95;;;;;;;15.38;100.00;95556.47;5101609;28;20039;-88
2022/10/17 00:49:09;;;;;;;40.35;18.48;;;;;;;15.44;100.00;95557.25;5118652;28;20031;-89
2022/10/17 00:51:41;;;;;;;30.40;17.48;;;;;;;15.60;100.00;95554.53;5118251;28;20035;-88
2022/10/17 00:54:07;;;;;;;40.00;18.52;;;;;;;15.55;100.00;95553.47;5101701;28;20115;-89
2022/10/17 00:56:33;;;;;;;32.22;17.90;;;;;;;15.55;100.00;95553.47;5118251;28;20084;-88
2022/10/17 00:58:59;;;;;;;31.98;17.45;;;;;;;15.48;100.00;95545.06;5118412;28;20432;-89
2022/10/17 01:01:24;;;;;;;36.13;18.38;;;;;;;15.52;100.00;95543.47;5117977;28;20038;-88
2022/10/17 01:03:50;;;;;;;27.83;15.85;;;;;;;15.59;100.00;95547.69;5118126;28;20031;-90
2022/10/17 01:06:15;;;;;;;27.73;15.07;;;;;;;15.47;100.00;95546.13;5118043;28;20096;-89
2022/10/17 01:08:41;;;;;;;29.27;16.02;;;;;;;15.44;100.00;95551.16;5118108;28;20055;-89
2022/10/17 01:11:26;;;;;;;28.80;16.42;;;;;;;15.36;100.00;95545.38;5096039;28;20039;-88
2022/10/17 01:13:59;;;;;;;27.05;15.23;;;;;;;15.18;100.00;95554.66;5081242;28;20396;-89
2022/10/17 01:16:53;;;;;;;29.00;14.95;;;;;;;15.20;100.00;95557.00;5089745;28;20036;-89
2022/10/17 01:19:19;;;;;;;;;;;;;;;14.94;100.00;95555.19;5099247;28;20028;-89
2022/10/17 01:22:01;;;;;;;35.45;17.55;;;;;;;14.96;100.00;95549.66;5098693;28;20006;-89
2022/10/17 01:24:36;;;;;;;29.85;16.92;;;;;;;15.05;100.00;95555.97;5114297;28;20063;-89
2022/10/17 01:27:21;;;;;;;29.33;18.02;;;;;;;15.11;100.00;95547.00;5097164;28;20024;-88
2022/10/17 01:30:08;;;;;;;30.13;16.20;;;;;;;15.17;100.00;95563.63;5097104;28;20035;-89
2022/10/17 01:32:47;;;;;;;34.15;17.25;;;;;;;15.20;100.00;95552.53;5080754;28;20416;-90
2022/10/17 01:35:30;;;;;;;37.33;18.60;;;;;;;15.08;100.00;95554.66;5096828;28;20441;-89
2022/10/17 01:38:18;;;;;;;30.45;16.75;;;;;;;15.16;100.00;95548.06;5114280;28;20035;-89
2022/10/17 01:40:54;;;;;;;33.10;18.60;;;;;;;15.02;100.00;95537.25;5096833;28;20023;-88
2022/10/17 01:43:58;;;;;;;32.08;16.73;;;;;;;15.21;100.00;95551.47;5113922;28;20042;-89
2022/10/17 01:46:37;;;;;;;33.22;18.80;;;;;;;14.99;100.00;95546.50;5094585;28;20043;-88
2022/10/17 01:49:05;;;;;;;33.05;18.08;;;;;;;14.84;100.00;95544.66;5113879;28;20031;-88
2022/10/17 01:51:50;;;;;;;33.58;16.80;;;;;;;15.07;100.00;95537.25;5113670;28;20071;-88
2022/10/17 01:54:20;;;;;;;34.70;16.38;;;;;;;15.09;100.00;95535.94;5096883;28;20471;-88
2022/10/17 01:56:47;;;;;;;26.38;15.63;;;;;;;15.29;100.00;95536.94;5113711;28;20024;-88
2022/10/17 01:59:16;;;;;;;31.50;16.15;;;;;;;15.02;100.00;95535.41;5096803;28;20024;-89
2022/10/17 02:01:43;;;;;;;37.05;18.67;;;;;;;14.86;100.00;95531.19;5096569;28;20027;-88
2022/10/17 02:04:11;;;;;;;35.40;18.17;;;;;;;14.84;100.00;95537.53;5113551;28;20028;-88
2022/10/17 02:06:40;;;;;;;38.85;17.70;;;;;;;14.75;100.00;95536.47;5113437;28;20028;-88
2022/10/17 02:09:23;;;;;;;33.88;16.10;;;;;;;14.96;100.00;95536.47;5113486;28;20028;-88
2022/10/17 02:12:01;;;;;;;30.85;15.50;;;;;;;15.06;100.00;95536.47;5113324;28;20028;-88
2022/10/17 02:14:33;;;;;;;27.95;14.13;;;;;;;14.94;100.00;95522.75;5096231;28;20055;-88
2022/10/17 02:17:29;;;;;;;32.15;15.40;;;;;;;14.94;100.00;95520.91;5096300;28;20085;-88
2022/10/17 02:20:27;;;;;;;31.20;17.27;;;;;;;14.75;100.00;95514.59;5096254;28;20138;-88
2022/10/17 02:22:55;;;;;;;25.80;15.68;;;;;;;14.73;100.00;95522.00;5095436;28;20123;-89
2022/10/17 02:25:30;;;;;;;34.60;16.25;;;;;;;14.32;100.00;95525.34;5079237;28;20047;-89
2022/10/17 02:28:04;;;;;;;31.15;15.45;;;;;;;14.62;100.00;95521.16;5097417;28;20051;-88
2022/10/17 02:30:38;;;;;;;27.83;15.93;;;;;;;14.56;100.00;95515.09;5095992;28;20039;-88
2022/10/17 02:33:17;;;;;;;29.13;16.15;;;;;;;14.64;100.00;95511.16;5113328;28;20527;-88
2022/10/17 02:35:49;;;;;;;23.50;14.23;;;;;;;14.69;100.00;95516.41;5096627;28;20128;-88
2022/10/17 02:38:15;;;;;;;30.52;16.52;;;;;;;14.67;100.00;95518.53;5112722;28;20081;-89
2022/10/17 02:40:41;;;;;;;27.48;15.73;;;;;;;14.75;100.00;95514.59;5096124;28;20031;-88
2022/10/17 02:43:07;;;;;;;34.40;16.05;;;;;;;14.56;100.00;95512.44;5112943;28;20059;-89
2022/10/17 02:45:34;;;;;;;32.67;15.75;;;;;;;14.28;100.00;95515.34;5095963;28;20071;-89
2022/10/17 02:48:38;;;;;;;27.08;15.93;;;;;;;14.41;100.00;95510.63;5096124;28;20420;-89
2022/10/17 02:51:11;;;;;;;28.33;14.68;;;;;;;14.44;100.00;95507.44;5113097;28;20023;-89
2022/10/17 02:53:45;;;;;;;33.42;15.85;;;;;;;14.37;100.00;95506.94;5095594;28;20126;-88
2022/10/17 02:56:18;;;;;;;29.20;16.23;;;;;;;14.34;100.00;95510.88;5113394;28;20020;-89
2022/10/17 02:58:47;;;;;;;27.13;15.85;;;;;;;14.25;100.00;95515.88;5078428;28;20063;-88
2022/10/17 03:01:13;;;;;;;34.03;16.77;;;;;;;14.30;100.00;95512.47;5103040;28;20038;-88
2022/10/17 03:03:38;;;;;;;31.98;17.15;;;;;;;14.30;100.00;95515.09;5082206;28;20032;-89
2022/10/17 03:06:04;;;;;;;32.70;17.77;;;;;;;14.22;100.00;95516.41;5085738;28;20112;-88
2022/10/17 03:08:29;;;;;;;32.83;16.92;;;;;;;14.32;100.00;95509.53;5102659;28;20039;-88
2022/10/17 03:10:57;;;;;;;33.20;16.92;;;;;;;14.24;100.00;95522.19;5102707;28;20084;-88
2022/10/17 03:13:23;;;;;;;28.13;17.08;;;;;;;14.19;100.00;95522.19;5114031;28;20063;-88
2022/10/17 03:15:55;;;;;;;29.48;16.45;;;;;;;14.11;100.00;95523.47;5085758;28;20031;-88
2022/10/17 03:18:29;;;;;;;31.15;16.25;;;;;;;14.30;100.00;95525.63;5102407;28;20344;-89
2022/10/17 03:20:57;;;;;;;30.73;16.90;;;;;;;14.33;100.00;95521.66;5085527;28;20386;-88
2022/10/17 03:23:22;;;;;;;29.75;17.48;;;;;;;14.30;100.00;95530.91;5116312;28;20370;-88
2022/10/17 03:25:48;;;;;;;45.25;17.88;;;;;;;14.35;100.00;95536.19;5102738;28;20114;-88
2022/10/17 03:28:18;;;;;;;29.63;16.48;;;;;;;14.50;100.00;95530.13;5102437;28;20039;-89
2022/10/17 03:30:44;;;;;;;27.33;15.43;;;;;;;14.47;100.00;95535.13;5102235;28;20040;-88
2022/10/17 03:33:09;;;;;;;30.95;17.75;;;;;;;14.51;100.00;95537.00;5102117;28;20050;-89
2022/10/17 03:35:37;;;;;;;35.00;17.27;;;;;;;14.68;100.00;95535.94;5102260;28;20028;-88
2022/10/17 03:38:03;;;;;;;32.90;17.05;;;;;;;14.66;100.00;95549.38;5102512;28;20399;-89
2022/10/17 03:40:28;;;;;;;30.15;16.00;;;;;;;14.75;100.00;95547.03;5103556;28;20103;-89
2022/10/17 03:42:54;;;;;;;30.95;17.17;;;;;;;14.90;100.00;95548.06;5102201;28;20020;-88
2022/10/17 03:45:19;;;;;;;27.73;15.30;;;;;;;14.99;100.00;95551.78;5085401;28;20027;-88
2022/10/17 03:47:44;;;;;;;29.80;15.52;;;;;;;15.08;100.00;95555.47;5102093;28;20035;-88
2022/10/17 03:50:10;;;;;;;31.85;15.45;;;;;;;14.86;100.00;95558.38;5101928;28;20421;-88
2022/10/17 03:52:35;;;;;;;28.70;16.35;;;;;;;14.96;100.00;95554.94;5102033;28;20032;-89
2022/10/17 03:55:01;;;;;;;28.55;16.27;;;;;;;14.98;100.00;95560.75;5102428;28;20317;-88
2022/10/17 03:57:26;;;;;;;23.98;14.02;;;;;;;14.92;100.00;95562.59;5085404;28;20020;-89
2022/10/17 03:59:52;;;;;;;33.55;15.98;;;;;;;14.98;100.00;95564.16;5119122;28;20031;-89
2022/10/17 04:02:17;;;;;;;26.60;14.90;;;;;;;15.05;100.00;95558.63;5102157;28;20062;-88
2022/10/17 04:04:43;;;;;;;27.23;15.52;;;;;;;15.10;100.00;95563.09;5102179;28;20126;-88
2022/10/17 04:07:08;;;;;;;27.95;14.32;;;;;;;15.22;100.00;95570.75;5103189;28;20035;-89
2022/10/17 04:09:36;;;;;;;28.42;14.75;;;;;;;15.25;100.00;95570.22;5098308;28;20032;-89
2022/10/17 04:12:01;;;;;;;31.80;14.30;;;;;;;15.35;100.00;95570.19;5115583;28;20058;-88
2022/10/17 04:14:27;;;;;;;24.25;14.88;;;;;;;15.09;100.00;95572.06;5098854;28;20031;-88
2022/10/17 04:16:52;;;;;;;22.02;12.85;;;;;;;15.12;100.00;95574.97;5100117;28;20036;-89
2022/10/17 04:19:17;;;;;;;25.08;13.85;;;;;;;15.20;100.00;95568.38;5098883;28;20349;-88
2022/10/17 04:21:43;;;;;;;22.70;13.07;;;;;;;15.23;100.00;95570.47;5098474;28;20028;-88
2022/10/17 04:24:10;;;;;;;23.98;13.57;;;;;;;15.22;100.00;95576.03;5098992;28;20027;-88
2022/10/17 04:26:35;;;;;;;23.33;13.50;;;;;;;15.20;100.00;95573.66;5098334;28;20024;-88
2022/10/17 04:29:03;;;;;;;24.45;13.27;;;;;;;15.17;100.00;95581.31;5098609;28;20024;-88
2022/10/17 04:31:28;;;;;;;20.65;12.55;;;;;;;15.10;100.00;95571.81;5098319;28;20093;-89
2022/10/17 04:33:54;;;;;;;19.50;12.40;;;;;;;15.17;100.00;95582.09;5098472;28;20036;-89
2022/10/17 04:36:20;;;;;;;18.85;11.93;;;;;;;15.07;100.00;95580.28;5099798;28;20032;-89
2022/10/17 04:39:03;;;;;;;17.30;11.32;;;;;;;15.00;100.00;95579.75;5098467;28;20028;-90
2022/10/17 04:41:29;;;;;;;22.10;12.73;;;;;;;14.94;100.00;95581.59;5115218;28;20024;-90
2022/10/17 04:43:54;;;;;;;21.85;12.30;;;;;;;14.92;100.00;95588.19;5098070;28;20066;-91
2022/10/17 04:46:20;;;;;;;19.15;13.07;;;;;;;14.72;100.00;95594.28;5098055;28;20073;-90
2022/10/17 04:48:45;;;;;;;24.55;14.38;;;;;;;14.59;100.00;95593.69;5097836;28;20474;-90
2022/10/17 04:51:13;;;;;;;35.22;14.52;;;;;;;14.42;100.00;95591.28;5081065;28;20024;-89
2022/10/17 04:53:39;;;;;;;25.80;14.50;;;;;;;14.42;100.00;95593.94;5097889;28;20024;-89
2022/10/17 04:56:14;;;;;;;21.50;13.63;;;;;;;14.57;100.00;95599.22;5098128;28;20024;-91
2022/10/17 04:58:40;;;;;;;29.25;13.35;;;;;;;14.70;100.00;95605.03;5097600;28;20028;-89
2022/10/17 05:01:07;;;;;;;26.40;14.70;;;;;;;14.28;100.00;95602.34;5107997;28;20424;-89
2022/10/17 05:03:33;;;;;;;29.98;15.55;;;;;;;14.37;100.00;95605.25;5094528;28;20044;-90
2022/10/17 05:06:12;;;;;;;27.70;14.98;;;;;;;14.41;100.00;95610.81;5061026;28;20025;-90
2022/10/17 05:08:37;;;;;;;35.17;16.13;;;;;;;14.30;100.00;95607.34;5077207;28;20371;-90
2022/10/17 05:11:12;;;;;;;23.85;14.10;;;;;;;14.70;100.00;95602.41;5060582;28;20028;-89
2022/10/17 05:13:37;;;;;;;28.63;13.32;;;;;;;14.90;100.00;95606.94;5060391;28;20445;-89
2022/10/17 05:16:03;;;;;;;25.33;13.27;;;;;;;15.00;100.00;95608.78;5077511;28;20208;-90
2022/10/17 05:18:30;;;;;;;21.63;12.80;;;;;;;15.00;100.00;95608.78;5077049;28;20028;-90
2022/10/17 05:20:56;;;;;;;27.55;13.65;;;;;;;14.87;100.00;95611.94;5060204;28;20020;-89
2022/10/17 05:23:21;;;;;;;24.80;13.65;;;;;;;14.89;100.00;95609.81;5094301;28;20161;-90
2022/10/17 05:25:47;;;;;;;20.90;12.10;;;;;;;14.64;100.00;95619.28;5060586;28;20040;-89
2022/10/17 05:28:12;;;;;;;24.63;13.27;;;;;;;14.70;100.00;95612.97;5093867;28;20449;-89
2022/10/17 05:30:38;;;;;;;21.48;12.02;;;;;;;14.70;100.00;95612.97;5078226;28;20032;-89
2022/10/17 05:33:03;;;;;;;22.38;12.02;;;;;;;14.82;100.00;95628.56;5076857;28;20094;-89
2022/10/17 05:35:28;;;;;;;25.80;14.52;;;;;;;14.38;100.00;95619.25;5078317;28;20056;-89
2022/10/17 05:37:54;;;;;;;28.05;15.10;;;;;;;14.47;100.00;95630.06;5076752;28;20040;-88
2022/10/17 05:40:19;;;;;;;28.23;15.40;;;;;;;14.36;100.00;95637.16;5076733;28;20032;-89
2022/10/17 05:42:46;;;;;;;22.55;14.00;;;;;;;14.51;100.00;95636.41;5076716;28;20035;-89
2022/10/17 05:45:12;;;;;;;24.25;14.30;;;;;;;14.48;100.00;95632.41;5076657;28;20035;-88
2022/10/17 05:47:37;;;;;;;25.13;14.20;;;;;;;14.55;100.00;95632.97;5076631;28;20029;-89
2022/10/17 05:50:03;;;;;;;25.67;13.85;;;;;;;14.66;100.00;95633.78;5076556;28;20033;-88
2022/10/17 05:52:28;;;;;;;26.08;12.35;;;;;;;14.71;100.00;95638.28;5076342;28;20056;-88
2022/10/17 05:54:54;;;;;;;24.13;12.52;;;;;;;14.84;100.00;95644.91;5076402;28;20380;-88
2022/10/17 05:57:26;;;;;;;26.67;12.88;;;;;;;14.66;100.00;95646.97;5093405;28;20032;-89
2022/10/17 05:59:51;;;;;;;21.00;12.73;;;;;;;14.66;100.00;95648.84;5076345;28;20032;-88
2022/10/17 06:02:17;;;;;;;22.80;13.05;;;;;;;14.55;100.00;95655.91;5059687;28;20119;-89
2022/10/17 06:04:44;;;;;;;24.65;12.05;;;;;;;14.70;100.00;95653.31;5076287;28;20032;-89
2022/10/17 06:07:11;;;;;;;35.88;12.95;;;;;;;14.82;100.00;95655.75;5076345;28;20031;-89
2022/10/17 06:09:37;;;;;;;21.17;13.05;;;;;;;14.88;100.00;95659.19;5076201;28;20031;-88
2022/10/17 06:12:02;;;;;;;19.13;11.98;;;;;;;14.94;100.00;95660.75;5076097;28;20035;-89
2022/10/17 06:14:28;;;;;;;24.17;12.82;;;;;;;14.80;100.00;95663.13;5075991;28;20342;-88
2022/10/17 06:16:53;;;;;;;24.05;12.57;;;;;;;15.07;100.00;95663.94;5059402;28;20039;-89
2022/10/17 06:19:21;;;;;;;21.50;12.75;;;;;;;14.93;100.00;95671.59;5076662;28;20021;-88
2022/10/17 06:21:46;;;;;;;21.45;11.98;;;;;;;15.01;100.00;95663.13;5077185;28;20020;-88
2022/10/17 06:24:12;;;;;;;18.65;11.40;;;;;;;15.25;100.00;95673.97;5077154;28;20024;-88
2022/10/17 06:26:37;;;;;;;19.88;12.52;;;;;;;15.15;100.00;95676.63;5076255;28;20036;-88
2022/10/17 06:29:03;;;;;;;20.27;11.00;;;;;;;15.50;100.00;95676.88;5075880;28;20200;-89
2022/10/17 06:31:28;;;;;;;17.95;11.27;;;;;;;15.73;100.00;95679.97;5058798;28;20068;-89
2022/10/17 06:33:53;;;;;;;18.42;10.55;;;;;;;15.73;100.00;95691.34;5059078;28;20046;-88
2022/10/17 06:36:19;;;;;;;17.27;10.48;;;;;;;15.92;100.00;95690.81;5076161;28;20494;-88
2022/10/17 06:38:44;;;;;;;18.98;11.27;;;;;;;15.99;100.00;95687.88;5059321;28;20036;-88
2022/10/17 06:41:14;;;;;;;18.00;10.25;;;;;;;16.09;100.00;95693.16;5059520;28;20028;-88
2022/10/17 06:43:55;;;;;;;;;;;;;;;;;;;;;
2022/10/17 06:47:15;;;;;;;;;;;;;;;;;;;;;
2022/10/17 06:49:33;;;;;;;15.07;9.93;;;;;;;16.65;100.00;95704.56;5094271;28;20024;-88
2022/10/17 06:52:11;;;;;;;;;;;;;;;;;;;;;
2022/10/17 06:54:52;;;;;;;16.88;9.25;;;;;;;16.86;100.00;95715.00;5095930;28;20031;-88
2022/10/17 06:57:28;;;;;;;16.98;9.55;;;;;;;17.01;100.00;95716.81;5096132;28;20029;-87
2022/10/17 06:59:58;;;;;;;15.75;9.57;;;;;;;17.12;100.00;95714.88;5111977;28;20423;-88
2022/10/17 07:02:24;;;;;;;19.17;9.18;;;;;;;17.20;100.00;95720.38;5112520;28;20032;-88
2022/10/17 07:04:49;;;;;;;16.02;9.02;;;;;;;17.29;100.00;95715.28;5079431;28;20140;-88
2022/10/17 07:07:15;;;;;;;13.43;8.90;;;;;;;17.40;100.00;95720.50;5095969;28;20054;-89
2022/10/17 07:09:40;;;;;;;14.73;9.15;;;;;;;17.34;100.00;95717.09;5095978;28;20077;-88
2022/10/17 07:12:07;;;;;;;15.45;9.48;;;;;;;17.25;100.00;95716.91;5095895;28;20051;-89
2022/10/17 07:14:34;;;;;;;18.85;10.65;;;;;;;17.32;100.00;95721.91;5095874;28;20370;-88
2022/10/17 07:17:00;;;;;;;18.02;10.05;;;;;;;17.36;100.00;95721.06;5095918;28;20028;-88
2022/10/17 07:19:28;;;;;;;21.05;11.38;;;;;;;17.22;100.00;95725.41;5097082;28;20036;-88
2022/10/17 07:21:53;;;;;;;17.73;10.85;;;;;;;17.48;100.00;95726.00;5112174;28;20032;-89
2022/10/17 07:24:19;;;;;;;20.73;10.82;;;;;;;17.34;100.00;95722.41;5112575;28;20099;-88
2022/10/17 07:26:44;;;;;;;18.08;11.20;;;;;;;17.31;100.00;95731.69;5112620;28;20141;-89
2022/10/17 07:29:10;;;;;;;23.67;10.07;;;;;;;17.40;100.00;95723.94;5112500;28;20035;-88
2022/10/17 07:31:35;;;;;;;21.83;10.85;;;;;;;17.31;100.00;95728.25;5096684;28;20028;-88
2022/10/17 07:34:01;;;;;;;17.30;10.93;;;;;;;17.32;100.00;95725.31;5078848;28;20032;-89
2022/10/17 07:36:27;;;;;;;16.88;10.50;;;;;;;17.44;100.00;95721.53;5095457;28;20031;-89
2022/10/17 07:38:52;;;;;;;18.83;11.60;;;;;;;17.09;100.00;95724.16;5112121;28;20111;-89
2022/10/17 07:41:18;;;;;;;20.73;11.70;;;;;;;16.94;100.00;95730.34;5112350;28;20028;-88
2022/10/17 07:43:44;;;;;;;23.77;12.13;;;;;;;17.02;100.00;95724.47;5096106;28;20134;-89
2022/10/17 07:46:10;;;;;;;19.33;11.45;;;;;;;17.24;100.00;95736.53;5100210;28;20028;-88
2022/10/17 07:48:38;;;;;;;24.92;11.57;;;;;;;17.41;100.00;95722.88;5116207;28;20324;-88
2022/10/17 07:51:05;;;;;;;20.00;11.20;;;;;;;17.66;100.00;95729.81;5115798;28;20024;-88
2022/10/17 07:53:30;;;;;;;18.48;11.85;;;;;;;17.89;100.00;95734.66;5116378;28;20040;-88
2022/10/17 07:55:56;;;;;;;17.38;10.80;;;;;;;18.10;100.00;95735.28;5099283;28;20028;-88
2022/10/17 07:58:21;;;;;;;20.08;12.38;;;;;;;18.08;100.00;95732.88;5100218;28;20425;-89
2022/10/17 08:00:47;;;;;;;18.15;10.75;;;;;;;18.26;100.00;95724.50;5099394;28;20378;-89
2022/10/17 08:03:13;;;;;;;23.05;11.70;;;;;;;18.12;100.00;95738.44;5099131;28;20040;-88
2022/10/17 08:05:39;;;;;;;21.88;11.48;;;;;;;18.27;100.00;95732.16;5099115;28;20391;-89
2022/10/17 08:08:04;;;;;;;22.70;11.65;;;;;;;18.44;100.00;95744.97;5099043;28;20020;-89
2022/10/17 08:10:29;;;;;;;23.95;10.68;;;;;;;18.23;100.00;95741.75;5099240;28;20031;-89
2022/10/17 08:12:56;;;;;;;13.65;8.57;;;;;;;18.60;100.00;95747.44;5115650;28;20394;-90
2022/10/17 08:15:22;;;;;;;15.77;9.55;;;;;;;18.44;100.00;95736.22;5081715;28;20024;-88
2022/10/17 08:17:48;;;;;;;20.50;10.65;;;;;;;18.59;100.00;95740.53;5081685;28;20035;-89
2022/10/17 08:20:14;;;;;;;18.08;9.50;;;;;;;18.62;100.00;95742.63;5115513;28;20039;-90
2022/10/17 08:22:39;;;;;;;25.00;11.25;;;;;;;18.43;100.00;95742.59;5115331;28;20123;-89
2022/10/17 08:25:06;;;;;;;18.70;10.15;;;;;;;18.65;100.00;95742.84;5100238;28;20444;-89
2022/10/17 08:27:32;;;;;;;22.05;10.52;;;;;;;18.59;100.00;95741.34;5115243;28;20032;-89
2022/10/17 08:29:58;;;;;;;13.77;9.90;;;;;;;18.97;100.00;95739.78;5098867;28;20142;-89
2022/10/17 08:32:25;;;;;;;14.68;9.65;;;;;;;18.99;100.00;95738.47;5115253;28;20114;-90
2022/10/17 08:34:51;;;;;;;19.83;11.25;;;;;;;18.99;100.00;95737.63;5081423;28;20081;-89
2022/10/17 08:37:17;;;;;;;17.10;9.85;;;;;;;19.07;100.00;95734.38;5115619;28;20059;-89
2022/10/17 08:39:43;;;;;;;17.23;10.05;;;;;;;19.14;100.00;95736.66;5081684;28;20055;-88
2022/10/17 08:42:55;;;;;;;17.80;10.93;;;;;;;18.97;100.00;95735.28;5081709;28;20028;-89
2022/10/17 08:45:48;;;;;;;18.60;8.80;;;;;;;19.32;100.00;95741.16;5098348;28;20040;-88
2022/10/17 08:48:16;;;;;;;19.42;9.70;;;;;;;19.33;100.00;95737.44;5095674;28;20059;-88
2022/10/17 08:50:51;;;;;;;14.80;8.48;;;;;;;19.54;100.00;95739.78;5098176;28;20318;-89
2022/10/17 08:53:26;;;;;;;17.45;9.02;;;;;;;19.69;100.00;95735.28;5098889;28;20092;-89
2022/10/17 08:55:52;;;;;;;14.15;8.95;;;;;;;19.73;100.00;95737.06;5097620;28;20325;-89
2022/10/17 08:58:23;;;;;;;20.15;10.10;;;;;;;19.58;100.00;95742.63;5098069;28;20101;-89
2022/10/17 09:01:12;;;;;;;17.05;8.50;;;;;;;19.84;100.00;95736.88;5095603;28;20324;-89
2022/10/17 09:03:43;;;;;;;14.48;8.40;;;;;;;19.91;100.00;95739.97;5094440;28;20047;-89
2022/10/17 09:06:16;;;;;;;14.50;7.70;;;;;;;20.03;100.00;95742.16;5114513;28;20024;-89
2022/10/17 09:08:51;;;;;;;11.45;7.70;;;;;;;20.16;100.00;95738.72;5097363;28;20437;-88
2022/10/17 09:11:44;;;;;;;12.77;7.38;;;;;;;20.24;100.00;95733.81;5098483;28;20486;-89
2022/10/17 09:14:45;;;;;;;11.50;7.28;;;;;;;20.23;100.00;95743.66;5098745;28;20341;-89
2022/10/17 09:17:21;;;;;;;16.33;7.40;;;;;;;20.30;100.00;95737.94;5097793;28;20024;-89
2022/10/17 09:20:08;;;;;;;15.20;7.38;;;;;;;20.38;100.00;95739.13;5097533;28;20310;-89
2022/10/17 09:23:05;;;;;;;13.77;7.13;;;;;;;20.42;100.00;95737.44;5097483;28;20031;-89
2022/10/17 09:25:43;;;;;;;15.05;8.70;;;;;;;20.41;100.00;95742.00;5095797;28;20126;-89
2022/10/17 09:28:11;;;;;;;15.30;7.28;;;;;;;20.48;100.00;95741.59;5097359;28;20077;-90
2022/10/17 09:30:38;;;;;;;15.40;8.07;;;;;;;20.38;100.00;95739.94;5097084;28;20130;-89
2022/10/17 09:33:16;;;;;;;13.65;7.20;;;;;;;20.42;100.00;95748.09;5114219;28;20131;-90
2022/10/17 09:35:42;;;;;;;13.63;7.10;;;;;;;20.52;100.00;95744.47;5113836;28;20118;-91
2022/10/17 09:38:16;;;;;;;13.57;7.47;;;;;;;20.54;100.00;95745.72;5098054;28;20408;-88
2022/10/17 09:40:43;;;;;;;13.00;7.68;;;;;;;20.47;100.00;95746.13;5096913;28;20090;-88
2022/10/17 09:43:13;;;;;;;15.45;7.30;;;;;;;20.83;100.00;95738.53;5098445;28;20077;-90
2022/10/17 09:46:10;;;;;;;13.18;6.43;;;;;;;20.94;100.00;95745.19;5096966;28;20081;-89
2022/10/17 09:48:40;;;;;;;14.50;7.45;;;;;;;20.81;100.00;95740.69;5113479;28;20055;-90
2022/10/17 09:51:06;;;;;;;13.13;6.45;;;;;;;20.89;100.00;95742.63;5113450;28;20027;-89
2022/10/17 09:53:38;;;;;;;20.20;6.90;;;;;;;20.81;100.00;95736.16;5096886;28;20421;-89
2022/10/17 09:56:08;;;;;;;16.42;6.97;;;;;;;20.55;100.00;95739.31;5096719;28;20032;-90
2022/10/17 09:58:53;;;;;;;14.23;7.07;;;;;;;20.79;100.00;95746.28;5113493;28;20028;-89
2022/10/17 10:01:21;;;;;;;13.95;7.38;;;;;;;20.72;100.00;95756.53;5096763;28;20110;-89
2022/10/17 10:03:48;;;;;;;13.82;7.15;;;;;;;20.94;100.00;95747.06;5096624;28;20063;-89
2022/10/17 10:06:18;;;;;;;13.82;6.93;;;;;;;21.09;99.91;95737.94;5095963;28;20127;-89
2022/10/17 10:08:51;;;;;;;10.57;5.90;;;;;;;21.14;98.89;95746.59;5113583;28;20032;-89
2022/10/17 10:11:19;;;;;;;9.25;5.80;;;;;;;21.39;99.34;95741.03;5113453;28;20114;-89
2022/10/17 10:13:47;;;;;;;11.82;6.78;;;;;;;21.21;97.94;95750.75;5113308;28;20038;-89
2022/10/17 10:16:19;;;;;;;13.02;5.72;;;;;;;21.48;94.69;95744.50;5113097;28;20028;-89
2022/10/17 10:18:45;;;;;;;12.82;6.30;;;;;;;21.37;87.87;95749.31;5096645;28;20023;-89
2022/10/17 10:21:15;;;;;;;12.70;6.57;;;;;;;21.41;88.11;95738.84;5096766;28;20126;-88
2022/10/17 10:23:45;;;;;;;9.25;5.35;;;;;;;21.74;93.15;95746.59;5112969;28;20046;-89
2022/10/17 10:26:18;;;;;;;12.20;6.28;;;;;;;21.86;94.08;95746.81;5096037;28;20028;-89
2022/10/17 10:28:49;;;;;;;;;;;;;;;21.91;91.95;95742.44;5096979;28;20032;-88
2022/10/17 10:31:15;;;;;;;10.27;5.80;;;;;;;21.91;85.74;95748.56;5113145;28;19931;-90
2022/10/17 10:33:42;;;;;;;11.40;6.15;;;;;;;22.06;89.12;95744.72;5095995;28;20032;-90
2022/10/17 10:36:08;;;;;;;10.73;5.80;;;;;;;21.73;85.72;95745.03;5095913;28;20035;-90
2022/10/17 10:38:34;;;;;;;11.02;6.78;;;;;;;22.01;89.79;95744.84;5095865;28;20040;-90
2022/10/17 10:41:06;;;;;;;10.65;6.15;;;;;;;21.88;90.04;95741.19;5095968;28;20123;-89
2022/10/17 10:43:35;;;;;;;13.45;7.03;;;;;;;22.08;92.48;95741.75;5112629;28;20032;-90
2022/10/17 10:46:03;;;;;;;11.32;6.15;;;;;;;22.15;92.80;95740.19;5095901;28;20028;-89
2022/10/17 10:48:28;;;;;;;15.43;6.57;;;;;;;22.02;93.59;95735.75;5112994;28;20035;-90
2022/10/17 10:50:57;;;;;;;11.25;6.18;;;;;;;21.89;94.64;95743.53;5096753;28;20031;-90
2022/10/17 10:53:44;;;;;;;13.40;5.90;;;;;;;22.09;87.65;95735.31;5096106;28;20375;-89
2022/10/17 10:56:18;;;;;;;15.98;6.53;;;;;;;22.23;83.90;95735.19;5112635;28;20030;-90
2022/10/17 10:59:08;;;;;;;9.45;5.80;;;;;;;22.08;81.96;95734.50;5112869;28;20421;-88
2022/10/17 11:01:53;;;;;;;9.80;5.78;;;;;;;22.22;80.77;95733.63;5095288;28;20042;-89
2022/10/17 11:04:22;;;;;;;13.95;5.57;;;;;;;21.98;82.72;95724.13;5112892;28;20024;-89
2022/10/17 11:06:50;;;;;;;9.82;5.22;;;;;;;22.01;81.78;95736.84;5095764;28;20028;-90
2022/10/17 11:09:25;;;;;;;14.68;5.82;;;;;;;22.03;85.48;95732.78;5095721;28;20384;-88
2022/10/17 11:12:21;;;;;;;11.35;4.90;;;;;;;22.35;84.76;95730.06;5096524;28;20028;-89
2022/10/17 11:14:59;;;;;;;9.55;5.90;;;;;;;22.62;82.72;95730.19;5099917;28;20044;-88
2022/10/17 11:17:58;;;;;;;11.65;5.95;;;;;;;22.73;79.82;95731.44;5095813;28;20032;-89
2022/10/17 11:20:45;;;;;;;9.82;5.57;;;;;;;22.96;77.97;95728.63;5099255;28;20455;-89
2022/10/17 11:23:32;;;;;;;11.27;5.95;;;;;;;22.92;77.70;95728.47;5099720;28;20108;-88
2022/10/17 11:26:00;;;;;;;11.48;5.90;;;;;;;22.73;79.91;95724.22;5116761;28;20074;-88
2022/10/17 11:28:25;;;;;;;9.52;6.20;;;;;;;22.87;86.33;95728.63;5099859;28;20028;-89
2022/10/17 11:31:01;;;;;;;13.38;7.05;;;;;;;23.00;86.83;95722.34;5099779;28;20318;-89